Observations for MILANO MALPENSA, Italy (LIMC)

LIMC 240850Z VRB02KT CAVOK 28/17 Q1019 NOSIG
LIMC 240820Z 17003KT 140V200 CAVOK 27/17 Q1020 NOSIG
LIMC 240750Z 16004KT 060V220 CAVOK 26/17 Q1020 NOSIG
LIMC 240720Z 01003KT 320V080 CAVOK 25/17 Q1019 NOSIG
LIMC 240650Z 01006KT CAVOK 24/16 Q1019 NOSIG
LIMC 240620Z 02008KT CAVOK 23/16 Q1019 NOSIG
LIMC 240550Z 02006KT CAVOK 21/17 Q1019 NOSIG
LIMC 240520Z 02007KT CAVOK 20/16 Q1019 NOSIG
LIMC 240450Z 01007KT CAVOK 19/16 Q1019 NOSIG
LIMC 240420Z 01006KT CAVOK 18/15 Q1019 NOSIG
LIMC 240350Z 02006KT CAVOK 17/15 Q1018 NOSIG
LIMC 240320Z 02006KT CAVOK 17/15 Q1018 NOSIG
LIMC 240250Z 02007KT CAVOK 18/15 Q1018 NOSIG
LIMC 240220Z 01007KT CAVOK 18/15 Q1018 NOSIG
LIMC 240150Z 02007KT CAVOK 17/15 Q1018 NOSIG
LIMC 240120Z 36006KT CAVOK 18/14 Q1018 NOSIG
LIMC 240050Z 07004KT CAVOK 17/15 Q1018 NOSIG
LIMC 240020Z 35005KT CAVOK 19/15 Q1018 NOSIG
LIMC 232350Z 04003KT CAVOK 19/15 Q1018 NOSIG
LIMC 232320Z 02005KT CAVOK 19/15 Q1018 NOSIG
LIMC 232250Z 01007KT CAVOK 19/15 Q1017 NOSIG
LIMC 232220Z 01007KT CAVOK 19/16 Q1017 NOSIG
LIMC 232150Z 02005KT CAVOK 19/15 Q1017 NOSIG
LIMC 232120Z 03003KT CAVOK 20/15 Q1017 NOSIG
LIMC 232050Z 03003KT CAVOK 20/15 Q1016 NOSIG
LIMC 232020Z VRB02KT CAVOK 21/15 Q1016 NOSIG
LIMC 231950Z VRB02KT CAVOK 23/15 Q1016 NOSIG
LIMC 231920Z 15003KT CAVOK 25/14 Q1015 NOSIG
LIMC 231850Z 20003KT CAVOK 26/14 Q1015 NOSIG
LIMC 231820Z 23005KT CAVOK 28/12 Q1015 NOSIG
LIMC 231750Z 23005KT 190V260 CAVOK 29/12 Q1015 NOSIG
LIMC 231720Z 25006KT 210V290 CAVOK 29/13 Q1015 NOSIG
LIMC 231650Z 26006KT 220V300 CAVOK 29/15 Q1015 NOSIG
LIMC 231620Z 21006KT 170V250 CAVOK 29/15 Q1015 NOSIG
LIMC 231550Z VRB05KT CAVOK 29/15 Q1015 NOSIG
LIMC 231520Z 21005KT 140V250 CAVOK 29/16 Q1015 NOSIG
LIMC 231450Z VRB04KT CAVOK 29/13 Q1015 NOSIG
LIMC 231420Z 20005KT 160V240 CAVOK 28/15 Q1015 NOSIG
LIMC 231350Z VRB06KT CAVOK 28/15 Q1015 NOSIG
LIMC 231320Z 25007KT 210V280 CAVOK 27/15 Q1016 NOSIG
LIMC 231250Z 23005KT 150V310 CAVOK 27/15 Q1016 NOSIG
LIMC 231220Z 26008KT 210V300 CAVOK 26/15 Q1016 NOSIG
LIMC 231150Z 24009KT 200V290 CAVOK 26/16 Q1015 NOSIG
LIMC 231120Z 24008KT 190V290 CAVOK 26/15 Q1015 NOSIG
LIMC 231050Z 24007KT 170V320 CAVOK 26/16 Q1015 NOSIG
LIMC 231020Z 19004KT 090V260 CAVOK 26/15 Q1015 NOSIG
LIMC 230950Z VRB03KT CAVOK 26/16 Q1015 NOSIG
LIMC 230920Z 25003KT 200V290 CAVOK 25/15 Q1015 NOSIG
LIMC 230850Z 12003KT 060V210 CAVOK 24/15 Q1015 NOSIG